Terminal Aerodrome Forecast
Issued by NWS

Home | Current Version | Previous Version | Text Only | Print | Product List | Glossary On
Versions: 1 2 3 4 5 6 7 8 9 10 11 12 13 14 15 16 17 18
000
FTUS43 KDMX 201431 AAA
TAFMCW
TAF AMD
KMCW 201431Z 2015/2112 17007KT 3SM -TSRA BR SCT030CB OVC060
     FM201600 18009KT P6SM SCT060 OVC100
     FM202100 19010KT P6SM -RA VCTS BKN050CB OVC100
     FM210500 23009KT 4SM -TSRA BR BKN030CB OVC060=

USA.gov is the U.S. government's official web portal to all federal, state and local government web resources and services.